sensor_id;sensor_type;location;lat;lon;timestamp;pressure;altitude;pressure_sealevel;temperature;humidity
37132;BME280;23035;50.032;21.978;2024-03-22T00:02:12;64570.72;;;-5.75;100.00
37132;BME280;23035;50.032;21.978;2024-03-22T00:07:17;64557.81;;;-5.92;100.00
37132;BME280;23035;50.032;21.978;2024-03-22T00:12:20;64633.53;;;-5.17;100.00
37132;BME280;23035;50.032;21.978;2024-03-22T00:17:23;64600.09;;;-5.52;100.00
37132;BME280;23035;50.032;21.978;2024-03-22T00:22:28;64584.22;;;-5.67;100.00
37132;BME280;23035;50.032;21.978;2024-03-22T00:27:31;64568.78;;;-5.84;100.00
37132;BME280;23035;50.032;21.978;2024-03-22T00:32:34;64537.28;;;-6.10;100.00
37132;BME280;23035;50.032;21.978;2024-03-22T00:37:38;64516.69;;;-6.29;100.00
37132;BME280;23035;50.032;21.978;2024-03-22T00:42:41;64380.94;;;-7.60;100.00
37132;BME280;23035;50.032;21.978;2024-03-22T00:47:44;64378.81;;;-7.62;100.00
37132;BME280;23035;50.032;21.978;2024-03-22T00:52:50;64408.41;;;-7.34;100.00
37132;BME280;23035;50.032;21.978;2024-03-22T00:57:53;64415.53;;;-7.32;100.00
37132;BME280;23035;50.032;21.978;2024-03-22T01:02:56;64491.31;;;-6.54;100.00
37132;BME280;23035;50.032;21.978;2024-03-22T01:08:01;64474.53;;;-6.68;100.00
37132;BME280;23035;50.032;21.978;2024-03-22T01:13:04;64430.16;;;-7.10;100.00
37132;BME280;23035;50.032;21.978;2024-03-22T01:18:07;64471.78;;;-6.73;100.00
37132;BME280;23035;50.032;21.978;2024-03-22T01:23:11;64485.09;;;-6.57;100.00
37132;BME280;23035;50.032;21.978;2024-03-22T01:28:14;64543.22;;;-6.01;100.00
37132;BME280;23035;50.032;21.978;2024-03-22T01:33:17;64476.28;;;-6.73;100.00
37132;BME280;23035;50.032;21.978;2024-03-22T01:38:21;64411.44;;;-7.33;100.00
37132;BME280;23035;50.032;21.978;2024-03-22T01:43:24;64407.34;;;-7.35;100.00
37132;BME280;23035;50.032;21.978;2024-03-22T01:48:27;64382.00;;;-7.59;100.00
37132;BME280;23035;50.032;21.978;2024-03-22T01:53:32;64499.25;;;-6.46;100.00
37132;BME280;23035;50.032;21.978;2024-03-22T01:58:36;64458.97;;;-6.87;100.00
37132;BME280;23035;50.032;21.978;2024-03-22T02:03:39;64477.59;;;-6.67;100.00
37132;BME280;23035;50.032;21.978;2024-03-22T02:08:43;64571.53;;;-5.79;100.00
37132;BME280;23035;50.032;21.978;2024-03-22T02:13:46;64624.66;;;-5.23;100.00
37132;BME280;23035;50.032;21.978;2024-03-22T02:18:50;64644.25;;;-5.04;100.00
37132;BME280;23035;50.032;21.978;2024-03-22T02:23:54;64695.47;;;-4.57;100.00
37132;BME280;23035;50.032;21.978;2024-03-22T02:28:57;64724.34;;;-4.35;100.00
37132;BME280;23035;50.032;21.978;2024-03-22T02:34:00;64685.81;;;-4.69;100.00
37132;BME280;23035;50.032;21.978;2024-03-22T02:39:05;64642.53;;;-5.08;100.00
37132;BME280;23035;50.032;21.978;2024-03-22T02:44:08;64530.84;;;-6.18;100.00
37132;BME280;23035;50.032;21.978;2024-03-22T02:49:10;64600.75;;;-5.49;100.00
37132;BME280;23035;50.032;21.978;2024-03-22T02:54:15;64626.56;;;-5.26;100.00
37132;BME280;23035;50.032;21.978;2024-03-22T02:59:17;64647.28;;;-5.04;100.00
37132;BME280;23035;50.032;21.978;2024-03-22T03:04:20;64687.94;;;-4.67;100.00
37132;BME280;23035;50.032;21.978;2024-03-22T03:09:25;64700.75;;;-4.52;100.00
37132;BME280;23035;50.032;21.978;2024-03-22T03:14:28;64678.00;;;-4.74;100.00
37132;BME280;23035;50.032;21.978;2024-03-22T03:19:31;64599.16;;;-5.50;100.00
37132;BME280;23035;50.032;21.978;2024-03-22T03:24:35;64595.44;;;-5.54;100.00
37132;BME280;23035;50.032;21.978;2024-03-22T03:29:38;64695.56;;;-4.55;100.00
37132;BME280;23035;50.032;21.978;2024-03-22T03:34:41;64684.78;;;-4.70;100.00
37132;BME280;23035;50.032;21.978;2024-03-22T03:39:46;64697.16;;;-4.53;100.00
37132;BME280;23035;50.032;21.978;2024-03-22T03:44:49;64728.81;;;-4.25;100.00
37132;BME280;23035;50.032;21.978;2024-03-22T03:49:52;64705.94;;;-4.50;100.00
37132;BME280;23035;50.032;21.978;2024-03-22T03:54:56;64718.75;;;-4.35;100.00
37132;BME280;23035;50.032;21.978;2024-03-22T03:59:59;64728.06;;;-4.31;100.00
37132;BME280;23035;50.032;21.978;2024-03-22T04:05:03;64707.94;;;-4.50;100.00
37132;BME280;23035;50.032;21.978;2024-03-22T04:10:08;64686.03;;;-4.64;100.00
37132;BME280;23035;50.032;21.978;2024-03-22T04:15:11;64614.38;;;-5.38;100.00
37132;BME280;23035;50.032;21.978;2024-03-22T04:20:14;64586.47;;;-5.62;100.00
37132;BME280;23035;50.032;21.978;2024-03-22T04:25:18;64596.50;;;-5.53;100.00
37132;BME280;23035;50.032;21.978;2024-03-22T04:30:22;64682.25;;;-4.70;100.00
37132;BME280;23035;50.032;21.978;2024-03-22T04:35:24;64555.28;;;-5.92;100.00
37132;BME280;23035;50.032;21.978;2024-03-22T04:40:29;64554.34;;;-5.91;100.00
37132;BME280;23035;50.032;21.978;2024-03-22T04:45:32;64458.56;;;-6.85;100.00
37132;BME280;23035;50.032;21.978;2024-03-22T04:50:34;64506.63;;;-6.39;100.00
37132;BME280;23035;50.032;21.978;2024-03-22T04:55:39;64552.53;;;-5.97;100.00
37132;BME280;23035;50.032;21.978;2024-03-22T05:00:47;64602.63;;;-5.52;100.00
37132;BME280;23035;50.032;21.978;2024-03-22T05:05:50;64625.38;;;-5.30;100.00
37132;BME280;23035;50.032;21.978;2024-03-22T05:10:55;64697.06;;;-4.56;100.00
37132;BME280;23035;50.032;21.978;2024-03-22T05:15:57;64697.38;;;-4.60;100.00
37132;BME280;23035;50.032;21.978;2024-03-22T05:21:00;64686.47;;;-4.66;100.00
37132;BME280;23035;50.032;21.978;2024-03-22T05:26:05;64701.94;;;-4.49;100.00
37132;BME280;23035;50.032;21.978;2024-03-22T05:31:07;64747.34;;;-4.08;100.00
37132;BME280;23035;50.032;21.978;2024-03-22T05:36:11;64729.47;;;-4.22;100.00
37132;BME280;23035;50.032;21.978;2024-03-22T05:41:18;64652.72;;;-4.96;100.00
37132;BME280;23035;50.032;21.978;2024-03-22T05:46:21;64665.94;;;-4.83;100.00
37132;BME280;23035;50.032;21.978;2024-03-22T05:51:24;64586.34;;;-5.65;100.00
37132;BME280;23035;50.032;21.978;2024-03-22T05:56:28;64602.84;;;-5.46;100.00
37132;BME280;23035;50.032;21.978;2024-03-22T06:01:31;64608.56;;;-5.43;100.00
37132;BME280;23035;50.032;21.978;2024-03-22T06:06:34;64619.66;;;-5.33;100.00
37132;BME280;23035;50.032;21.978;2024-03-22T06:11:39;64641.78;;;-5.14;100.00
37132;BME280;23035;50.032;21.978;2024-03-22T06:16:46;64673.13;;;-4.81;100.00
37132;BME280;23035;50.032;21.978;2024-03-22T06:21:49;64743.44;;;-4.16;100.00
37132;BME280;23035;50.032;21.978;2024-03-22T06:26:54;64685.81;;;-4.69;100.00
37132;BME280;23035;50.032;21.978;2024-03-22T06:31:57;64657.78;;;-4.96;100.00
37132;BME280;23035;50.032;21.978;2024-03-22T06:37:00;64651.31;;;-5.05;100.00
37132;BME280;23035;50.032;21.978;2024-03-22T06:42:05;64497.00;;;-6.51;100.00
37132;BME280;23035;50.032;21.978;2024-03-22T06:47:08;64484.88;;;-6.62;100.00
37132;BME280;23035;50.032;21.978;2024-03-22T06:52:11;64428.88;;;-7.16;100.00
37132;BME280;23035;50.032;21.978;2024-03-22T06:57:15;64433.34;;;-7.07;100.00
37132;BME280;23035;50.032;21.978;2024-03-22T07:02:18;64469.13;;;-6.75;100.00
37132;BME280;23035;50.032;21.978;2024-03-22T07:07:21;64497.78;;;-6.45;100.00
37132;BME280;23035;50.032;21.978;2024-03-22T07:12:26;64496.63;;;-6.49;100.00
37132;BME280;23035;50.032;21.978;2024-03-22T07:17:29;64490.28;;;-6.55;100.00
37132;BME280;23035;50.032;21.978;2024-03-22T07:22:32;64484.88;;;-6.62;100.00
37132;BME280;23035;50.032;21.978;2024-03-22T07:27:37;64488.16;;;-6.57;100.00
37132;BME280;23035;50.032;21.978;2024-03-22T07:32:40;64604.56;;;-5.42;100.00
37132;BME280;23035;50.032;21.978;2024-03-22T07:37:43;64686.25;;;-4.71;100.00
37132;BME280;23035;50.032;21.978;2024-03-22T07:42:47;64608.56;;;-5.43;100.00
37132;BME280;23035;50.032;21.978;2024-03-22T07:47:50;64702.88;;;-4.50;100.00
37132;BME280;23035;50.032;21.978;2024-03-22T07:52:53;64686.69;;;-4.61;100.00
37132;BME280;23035;50.032;21.978;2024-03-22T07:57:58;64779.13;;;-3.77;100.00
37132;BME280;23035;50.032;21.978;2024-03-22T08:03:01;64701.69;;;-4.54;100.00
37132;BME280;23035;50.032;21.978;2024-03-22T08:08:05;64716.66;;;-4.37;100.00
37132;BME280;23035;50.032;21.978;2024-03-22T08:13:09;64717.59;;;-4.39;100.00
37132;BME280;23035;50.032;21.978;2024-03-22T08:18:13;64786.03;;;-3.70;100.00
37132;BME280;23035;50.032;21.978;2024-03-22T08:23:16;64878.69;;;-2.84;100.00
37132;BME280;23035;50.032;21.978;2024-03-22T08:28:23;64771.84;;;-3.82;100.00
37132;BME280;23035;50.032;21.978;2024-03-22T08:33:26;64718.22;;;-4.36;100.00
37132;BME280;23035;50.032;21.978;2024-03-22T08:38:30;64821.75;;;-3.31;100.00
37132;BME280;23035;50.032;21.978;2024-03-22T08:43:35;64772.38;;;-3.81;100.00
37132;BME280;23035;50.032;21.978;2024-03-22T08:48:38;64734.00;;;-4.23;100.00
37132;BME280;23035;50.032;21.978;2024-03-22T08:53:40;64729.25;;;-4.27;100.00
37132;BME280;23035;50.032;21.978;2024-03-22T08:58:45;64734.41;;;-4.25;100.00
37132;BME280;23035;50.032;21.978;2024-03-22T09:03:48;64709.34;;;-4.42;100.00
37132;BME280;23035;50.032;21.978;2024-03-22T09:08:52;64746.31;;;-4.09;100.00
37132;BME280;23035;50.032;21.978;2024-03-22T09:14:01;64789.75;;;-3.67;100.00
37132;BME280;23035;50.032;21.978;2024-03-22T09:19:06;64797.69;;;-3.59;100.00
37132;BME280;23035;50.032;21.978;2024-03-22T09:24:09;64797.06;;;-3.62;100.00
37132;BME280;23035;50.032;21.978;2024-03-22T09:29:14;64822.72;;;-3.33;100.00
37132;BME280;23035;50.032;21.978;2024-03-22T09:34:17;64837.66;;;-3.16;100.00
37132;BME280;23035;50.032;21.978;2024-03-22T09:39:21;64818.34;;;-3.39;100.00
37132;BME280;23035;50.032;21.978;2024-03-22T09:44:27;64767.06;;;-3.86;100.00
37132;BME280;23035;50.032;21.978;2024-03-22T09:49:30;64821.09;;;-3.34;100.00
37132;BME280;23035;50.032;21.978;2024-03-22T09:54:34;64798.22;;;-3.59;100.00
37132;BME280;23035;50.032;21.978;2024-03-22T09:59:39;64820.06;;;-3.35;100.00
37132;BME280;23035;50.032;21.978;2024-03-22T10:04:43;64829.81;;;-3.33;100.00
37132;BME280;23035;50.032;21.978;2024-03-22T10:09:46;64878.38;;;-2.79;100.00
37132;BME280;23035;50.032;21.978;2024-03-22T10:14:52;64840.09;;;-3.19;100.00
37132;BME280;23035;50.032;21.978;2024-03-22T10:19:55;64868.81;;;-2.89;100.00
37132;BME280;23035;50.032;21.978;2024-03-22T10:24:59;64831.19;;;-3.25;100.00
37132;BME280;23035;50.032;21.978;2024-03-22T10:30:08;64876.16;;;-2.84;100.00
37132;BME280;23035;50.032;21.978;2024-03-22T10:35:12;64848.03;;;-3.11;100.00
37132;BME280;23035;50.032;21.978;2024-03-22T10:40:16;64839.03;;;-3.20;100.00
37132;BME280;23035;50.032;21.978;2024-03-22T10:45:21;64892.56;;;-2.68;100.00
37132;BME280;23035;50.032;21.978;2024-03-22T10:50:27;64859.81;;;-2.97;100.00
37132;BME280;23035;50.032;21.978;2024-03-22T10:55:33;64842.09;;;-3.19;100.00
37132;BME280;23035;50.032;21.978;2024-03-22T11:00:41;64844.34;;;-3.14;100.00
37132;BME280;23035;50.032;21.978;2024-03-22T11:05:46;64876.16;;;-2.84;100.00
37132;BME280;23035;50.032;21.978;2024-03-22T11:10:49;64900.97;;;-2.63;100.00
37132;BME280;23035;50.032;21.978;2024-03-22T11:15:58;64957.31;;;-2.06;100.00
37132;BME280;23035;50.032;21.978;2024-03-22T11:21:04;64862.06;;;-2.93;100.00
37132;BME280;23035;50.032;21.978;2024-03-22T11:26:09;64900.53;;;-2.61;100.00
37132;BME280;23035;50.032;21.978;2024-03-22T11:31:14;64864.47;;;-2.95;100.00
37132;BME280;23035;50.032;21.978;2024-03-22T11:36:17;64922.16;;;-2.42;100.00
37132;BME280;23035;50.032;21.978;2024-03-22T11:41:27;64932.25;;;-2.33;100.00
37132;BME280;23035;50.032;21.978;2024-03-22T11:46:33;65017.69;;;-1.51;100.00
37132;BME280;23035;50.032;21.978;2024-03-22T11:51:38;64960.59;;;-2.00;100.00
37132;BME280;23035;50.032;21.978;2024-03-22T11:56:41;64948.91;;;-2.12;100.00
37132;BME280;23035;50.032;21.978;2024-03-22T12:01:48;64999.22;;;-1.66;100.00
37132;BME280;23035;50.032;21.978;2024-03-22T12:06:52;64879.84;;;-2.80;100.00
37132;BME280;23035;50.032;21.978;2024-03-22T12:11:59;64909.22;;;-2.60;100.00
37132;BME280;23035;50.032;21.978;2024-03-22T12:17:04;64930.25;;;-2.32;100.00
37132;BME280;23035;50.032;21.978;2024-03-22T12:22:07;64924.53;;;-2.35;100.00
37132;BME280;23035;50.032;21.978;2024-03-22T12:27:10;64952.94;;;-2.13;100.00
37132;BME280;23035;50.032;21.978;2024-03-22T12:32:15;64871.78;;;-2.91;100.00
37132;BME280;23035;50.032;21.978;2024-03-22T12:37:18;64975.22;;;-1.91;100.00
37132;BME280;23035;50.032;21.978;2024-03-22T12:42:22;64962.06;;;-2.02;100.00
37132;BME280;23035;50.032;21.978;2024-03-22T12:47:27;64976.28;;;-1.90;100.00
37132;BME280;23035;50.032;21.978;2024-03-22T12:52:30;65012.50;;;-1.53;100.00
37132;BME280;23035;50.032;21.978;2024-03-22T12:57:33;64945.09;;;-2.18;100.00
37132;BME280;23035;50.032;21.978;2024-03-22T13:02:38;64937.25;;;-2.23;100.00
37132;BME280;23035;50.032;21.978;2024-03-22T13:07:42;64985.41;;;-1.79;100.00
37132;BME280;23035;50.032;21.978;2024-03-22T13:12:45;64917.91;;;-2.46;100.00
37132;BME280;23035;50.032;21.978;2024-03-22T13:17:51;64971.00;;;-1.95;100.00
37132;BME280;23035;50.032;21.978;2024-03-22T13:22:54;64996.69;;;-1.66;100.00
37132;BME280;23035;50.032;21.978;2024-03-22T13:27:58;64966.84;;;-1.97;100.00
37132;BME280;23035;50.032;21.978;2024-03-22T13:33:06;64943.41;;;-2.22;100.00
37132;BME280;23035;50.032;21.978;2024-03-22T13:38:09;65003.47;;;-1.62;100.00
37132;BME280;23035;50.032;21.978;2024-03-22T13:43:14;65013.03;;;-1.53;100.00
37132;BME280;23035;50.032;21.978;2024-03-22T13:48:19;64928.00;;;-2.37;100.00
37132;BME280;23035;50.032;21.978;2024-03-22T13:53:26;64983.19;;;-1.84;100.00
37132;BME280;23035;50.032;21.978;2024-03-22T13:58:29;64998.69;;;-1.66;100.00
37132;BME280;23035;50.032;21.978;2024-03-22T14:03:34;64976.28;;;-1.90;100.00
37132;BME280;23035;50.032;21.978;2024-03-22T14:08:37;64943.50;;;-2.19;100.00
37132;BME280;23035;50.032;21.978;2024-03-22T14:13:40;64946.38;;;-2.12;100.00
37132;BME280;23035;50.032;21.978;2024-03-22T14:18:44;64989.25;;;-1.73;100.00
37132;BME280;23035;50.032;21.978;2024-03-22T14:23:51;64994.97;;;-1.70;100.00
37132;BME280;23035;50.032;21.978;2024-03-22T14:28:54;64961.00;;;-2.03;100.00
37132;BME280;23035;50.032;21.978;2024-03-22T14:33:58;64899.47;;;-2.62;100.00
37132;BME280;23035;50.032;21.978;2024-03-22T14:39:01;64926.94;;;-2.38;100.00
37132;BME280;23035;50.032;21.978;2024-03-22T14:44:07;64926.53;;;-2.36;100.00
37132;BME280;23035;50.032;21.978;2024-03-22T14:49:12;64907.31;;;-2.56;100.00
37132;BME280;23035;50.032;21.978;2024-03-22T14:54:15;64848.16;;;-3.08;100.00
37132;BME280;23035;50.032;21.978;2024-03-22T14:59:18;64828.31;;;-3.32;100.00
37132;BME280;23035;50.032;21.978;2024-03-22T15:04:23;64873.59;;;-2.84;100.00
37132;BME280;23035;50.032;21.978;2024-03-22T15:09:26;64873.47;;;-2.86;100.00
37132;BME280;23035;50.032;21.978;2024-03-22T15:14:29;64843.78;;;-3.15;100.00
37132;BME280;23035;50.032;21.978;2024-03-22T15:19:34;64911.13;;;-2.50;100.00
37132;BME280;23035;50.032;21.978;2024-03-22T15:24:37;64870.41;;;-2.87;100.00
37132;BME280;23035;50.032;21.978;2024-03-22T15:29:40;64915.28;;;-2.49;100.00
37132;BME280;23035;50.032;21.978;2024-03-22T15:34:45;64889.81;;;-2.73;100.00
37132;BME280;23035;50.032;21.978;2024-03-22T15:39:48;64856.41;;;-3.05;100.00
37132;BME280;23035;50.032;21.978;2024-03-22T15:44:51;64844.88;;;-3.14;100.00
37132;BME280;23035;50.032;21.978;2024-03-22T15:49:55;64831.84;;;-3.22;100.00
37132;BME280;23035;50.032;21.978;2024-03-22T15:54:58;64833.72;;;-3.25;100.00
37132;BME280;23035;50.032;21.978;2024-03-22T16:00:02;64791.84;;;-3.65;100.00
37132;BME280;23035;50.032;21.978;2024-03-22T16:05:14;64800.44;;;-3.54;100.00
37132;BME280;23035;50.032;21.978;2024-03-22T16:10:18;64828.44;;;-3.30;100.00
37132;BME280;23035;50.032;21.978;2024-03-22T16:15:21;64843.25;;;-3.15;100.00
37132;BME280;23035;50.032;21.978;2024-03-22T16:20:25;64764.84;;;-3.91;100.00
37132;BME280;23035;50.032;21.978;2024-03-22T16:25:28;64799.81;;;-3.57;100.00
37132;BME280;23035;50.032;21.978;2024-03-22T16:30:32;64837.97;;;-3.21;100.00
37132;BME280;23035;50.032;21.978;2024-03-22T16:35:36;64828.44;;;-3.30;100.00
37132;BME280;23035;50.032;21.978;2024-03-22T16:40:39;64816.25;;;-3.41;100.00
37132;BME280;23035;50.032;21.978;2024-03-22T16:45:42;64821.94;;;-3.38;100.00
37132;BME280;23035;50.032;21.978;2024-03-22T16:50:47;64819.41;;;-3.38;100.00
37132;BME280;23035;50.032;21.978;2024-03-22T16:55:51;64842.72;;;-3.16;100.00
37132;BME280;23035;50.032;21.978;2024-03-22T17:00:55;64761.03;;;-3.97;100.00
37132;BME280;23035;50.032;21.978;2024-03-22T17:06:00;64802.34;;;-3.57;100.00
37132;BME280;23035;50.032;21.978;2024-03-22T17:11:03;64789.63;;;-3.69;100.00
37132;BME280;23035;50.032;21.978;2024-03-22T17:16:06;64772.91;;;-3.81;100.00
37132;BME280;23035;50.032;21.978;2024-03-22T17:21:11;64789.75;;;-3.67;100.00
37132;BME280;23035;50.032;21.978;2024-03-22T17:26:14;64815.72;;;-3.42;100.00
37132;BME280;23035;50.032;21.978;2024-03-22T17:31:21;64725.75;;;-4.26;100.00
37132;BME280;23035;50.032;21.978;2024-03-22T17:36:25;64817.72;;;-3.42;100.00
37132;BME280;23035;50.032;21.978;2024-03-22T17:41:28;64811.34;;;-3.49;100.00
37132;BME280;23035;50.032;21.978;2024-03-22T17:46:31;64811.06;;;-3.44;100.00
37132;BME280;23035;50.032;21.978;2024-03-22T17:51:36;64755.72;;;-4.02;100.00
37132;BME280;23035;50.032;21.978;2024-03-22T17:56:42;64826.06;;;-3.37;100.00
37132;BME280;23035;50.032;21.978;2024-03-22T18:01:45;64769.06;;;-3.87;100.00
37132;BME280;23035;50.032;21.978;2024-03-22T18:06:51;64754.34;;;-3.98;100.00
37132;BME280;23035;50.032;21.978;2024-03-22T18:11:54;64701.31;;;-4.52;100.00
37132;BME280;23035;50.032;21.978;2024-03-22T18:16:58;64766.13;;;-3.85;100.00
37132;BME280;23035;50.032;21.978;2024-03-22T18:22:04;64775.97;;;-3.80;100.00
37132;BME280;23035;50.032;21.978;2024-03-22T18:27:07;64759.13;;;-3.94;100.00
37132;BME280;23035;50.032;21.978;2024-03-22T18:32:10;64735.19;;;-4.19;100.00
37132;BME280;23035;50.032;21.978;2024-03-22T18:37:15;64766.84;;;-3.91;100.00
37132;BME280;23035;50.032;21.978;2024-03-22T18:42:21;64718.22;;;-4.36;100.00
37132;BME280;23035;50.032;21.978;2024-03-22T18:47:24;64743.66;;;-4.11;100.00
37132;BME280;23035;50.032;21.978;2024-03-22T18:52:28;64754.78;;;-4.00;100.00
37132;BME280;23035;50.032;21.978;2024-03-22T18:57:31;64674.06;;;-4.83;100.00
37132;BME280;23035;50.032;21.978;2024-03-22T19:02:34;64680.09;;;-4.72;100.00
37132;BME280;23035;50.032;21.978;2024-03-22T19:07:42;64662.66;;;-4.89;100.00
37132;BME280;23035;50.032;21.978;2024-03-22T19:12:47;64681.19;;;-4.71;100.00
37132;BME280;23035;50.032;21.978;2024-03-22T19:17:50;64644.13;;;-5.07;100.00
37132;BME280;23035;50.032;21.978;2024-03-22T19:22:56;64652.59;;;-4.99;100.00
37132;BME280;23035;50.032;21.978;2024-03-22T19:27:59;64646.25;;;-5.05;100.00
37132;BME280;23035;50.032;21.978;2024-03-22T19:33:04;64681.19;;;-4.71;100.00
37132;BME280;23035;50.032;21.978;2024-03-22T19:38:09;64696.41;;;-4.59;100.00
37132;BME280;23035;50.032;21.978;2024-03-22T19:43:11;64643.06;;;-5.08;100.00
37132;BME280;23035;50.032;21.978;2024-03-22T19:48:15;64664.34;;;-4.85;100.00
37132;BME280;23035;50.032;21.978;2024-03-22T19:53:19;64700.66;;;-4.55;100.00
37132;BME280;23035;50.032;21.978;2024-03-22T19:58:22;64641.50;;;-5.09;100.00
37132;BME280;23035;50.032;21.978;2024-03-22T20:03:32;64714.53;;;-4.39;100.00
37132;BME280;23035;50.032;21.978;2024-03-22T20:08:37;64685.31;;;-4.70;100.00
37132;BME280;23035;50.032;21.978;2024-03-22T20:13:40;64643.06;;;-5.08;100.00
37132;BME280;23035;50.032;21.978;2024-03-22T20:18:43;64617.97;;;-5.37;100.00
37132;BME280;23035;50.032;21.978;2024-03-22T20:23:48;64667.50;;;-4.82;100.00
37132;BME280;23035;50.032;21.978;2024-03-22T20:28:51;64693.88;;;-4.59;100.00
37132;BME280;23035;50.032;21.978;2024-03-22T20:33:54;64648.34;;;-5.03;100.00
